aviador You're here:

KDMO Decoded Metar

SEDALIA in MO, USA
Report Time2017-05-29 02:53:00
UTC Time2017-05-29 03:53:34
Flight Rules vfr VFR
Wind250° at 04 kt
W.Decomp.*RWY 23: 3.8 kt HW 1.2 kt RCW
RWY 18: 1.6 kt HW 3.7 kt RCW
W.Rank250° ranks 28
Current wind is below 250° avg. (7.2)
Visibility9999 m
Phenomena:N/A
Clouds:N/A
Expected CloudBase > 4,000 ft AGL from Temp-Dew spread
CeilingNone
Temp22°C (ISA +9)
Dew Point12°C (53% RH)
AAT21.2°C
QNH1013 hPa
Density Alt2,113 ft
Elevation899 ft
Report Wrong Elevation
Raw Report
KDMO 290253Z AUTO 25004KT 10SM CLR 22/12 A2991 RMK AO2 SLP122
T02170117 58002=

Extra information for KDMO:More info

Metar Taf Metar & Taf Last 4 Metars F.Rules Stats Wind Profile Meteogram Temp Stats Airport Information Weather charts Add Link Nearby VenuesMetar ALERT Operation Metar Decoded Social comments

AIRNAV info for KDMO